sensor_id;sensor_type;location;lat;lon;timestamp;P1;durP1;ratioP1;P2;durP2;ratioP2
18574;SDS011;9417;16.484;102.872;2022-09-02T00:00:48;23.40;;;18.63;;
18574;SDS011;9417;16.484;102.872;2022-09-02T00:03:05;22.20;;;16.98;;
18574;SDS011;9417;16.484;102.872;2022-09-02T00:05:13;22.10;;;16.75;;
18574;SDS011;9417;16.484;102.872;2022-09-02T00:07:23;21.35;;;15.88;;
18574;SDS011;9417;16.484;102.872;2022-09-02T00:09:31;19.60;;;16.23;;
18574;SDS011;9417;16.484;102.872;2022-09-02T00:11:41;23.40;;;16.92;;
18574;SDS011;9417;16.484;102.872;2022-09-02T00:13:50;20.73;;;16.17;;
18574;SDS011;9417;16.484;102.872;2022-09-02T00:15:58;21.85;;;16.38;;
18574;SDS011;9417;16.484;102.872;2022-09-02T00:18:08;19.67;;;15.13;;
18574;SDS011;9417;16.484;102.872;2022-09-02T00:20:19;22.38;;;15.85;;
18574;SDS011;9417;16.484;102.872;2022-09-02T00:22:28;20.20;;;15.55;;
18574;SDS011;9417;16.484;102.872;2022-09-02T00:24:36;21.20;;;15.63;;
18574;SDS011;9417;16.484;102.872;2022-09-02T00:26:44;20.25;;;15.73;;
18574;SDS011;9417;16.484;102.872;2022-09-02T00:28:58;20.85;;;14.63;;
18574;SDS011;9417;16.484;102.872;2022-09-02T00:31:06;19.90;;;14.35;;
18574;SDS011;9417;16.484;102.872;2022-09-02T00:33:16;19.27;;;14.55;;
18574;SDS011;9417;16.484;102.872;2022-09-02T00:35:24;20.48;;;13.75;;
18574;SDS011;9417;16.484;102.872;2022-09-02T00:37:32;17.65;;;13.43;;
18574;SDS011;9417;16.484;102.872;2022-09-02T00:39:40;16.42;;;12.90;;
18574;SDS011;9417;16.484;102.872;2022-09-02T00:41:48;16.75;;;13.48;;
18574;SDS011;9417;16.484;102.872;2022-09-02T00:43:57;17.17;;;13.40;;
18574;SDS011;9417;16.484;102.872;2022-09-02T00:46:07;17.23;;;14.20;;
18574;SDS011;9417;16.484;102.872;2022-09-02T00:48:18;18.85;;;14.45;;
18574;SDS011;9417;16.484;102.872;2022-09-02T00:50:27;18.40;;;14.50;;
18574;SDS011;9417;16.484;102.872;2022-09-02T00:52:38;14.30;;;11.88;;
18574;SDS011;9417;16.484;102.872;2022-09-02T00:54:49;13.63;;;11.20;;
18574;SDS011;9417;16.484;102.872;2022-09-02T00:56:57;12.75;;;10.88;;
18574;SDS011;9417;16.484;102.872;2022-09-02T00:59:08;12.30;;;9.82;;
18574;SDS011;9417;16.484;102.872;2022-09-02T01:01:18;11.85;;;9.75;;
18574;SDS011;9417;16.484;102.872;2022-09-02T01:03:30;10.80;;;9.13;;
18574;SDS011;9417;16.484;102.872;2022-09-02T01:05:39;10.60;;;9.18;;
18574;SDS011;9417;16.484;102.872;2022-09-02T01:07:49;11.70;;;9.32;;
18574;SDS011;9417;16.484;102.872;2022-09-02T01:09:59;11.63;;;8.88;;
18574;SDS011;9417;16.484;102.872;2022-09-02T01:12:08;8.85;;;7.90;;
18574;SDS011;9417;16.484;102.872;2022-09-02T01:14:19;11.00;;;8.88;;
18574;SDS011;9417;16.484;102.872;2022-09-02T01:16:32;11.18;;;9.20;;
18574;SDS011;9417;16.484;102.872;2022-09-02T01:18:46;9.75;;;8.38;;
18574;SDS011;9417;16.484;102.872;2022-09-02T01:20:58;11.20;;;8.60;;
18574;SDS011;9417;16.484;102.872;2022-09-02T01:23:09;9.70;;;8.70;;
18574;SDS011;9417;16.484;102.872;2022-09-02T01:27:27;9.80;;;8.80;;
18574;SDS011;9417;16.484;102.872;2022-09-02T01:29:35;11.45;;;8.52;;
18574;SDS011;9417;16.484;102.872;2022-09-02T01:31:42;11.57;;;7.95;;
18574;SDS011;9417;16.484;102.872;2022-09-02T01:33:50;10.20;;;7.80;;
18574;SDS011;9417;16.484;102.872;2022-09-02T01:35:59;9.80;;;7.68;;
18574;SDS011;9417;16.484;102.872;2022-09-02T01:38:10;9.80;;;7.30;;
18574;SDS011;9417;16.484;102.872;2022-09-02T01:40:18;9.23;;;7.05;;
18574;SDS011;9417;16.484;102.872;2022-09-02T01:42:26;9.77;;;7.30;;
18574;SDS011;9417;16.484;102.872;2022-09-02T01:44:34;10.10;;;7.70;;
18574;SDS011;9417;16.484;102.872;2022-09-02T01:46:48;8.25;;;7.38;;
18574;SDS011;9417;16.484;102.872;2022-09-02T01:48:56;11.25;;;6.93;;
18574;SDS011;9417;16.484;102.872;2022-09-02T01:51:04;9.77;;;7.05;;
18574;SDS011;9417;16.484;102.872;2022-09-02T01:53:14;8.43;;;7.03;;
18574;SDS011;9417;16.484;102.872;2022-09-02T01:55:22;10.80;;;7.22;;
18574;SDS011;9417;16.484;102.872;2022-09-02T01:57:29;11.45;;;7.85;;
18574;SDS011;9417;16.484;102.872;2022-09-02T01:59:40;7.70;;;6.70;;
18574;SDS011;9417;16.484;102.872;2022-09-02T02:01:51;9.10;;;7.70;;
18574;SDS011;9417;16.484;102.872;2022-09-02T02:03:58;8.30;;;6.80;;
18574;SDS011;9417;16.484;102.872;2022-09-02T02:06:08;8.98;;;7.57;;
18574;SDS011;9417;16.484;102.872;2022-09-02T02:08:19;8.00;;;7.20;;
18574;SDS011;9417;16.484;102.872;2022-09-02T02:10:27;9.25;;;6.40;;
18574;SDS011;9417;16.484;102.872;2022-09-02T02:12:35;7.57;;;6.78;;
18574;SDS011;9417;16.484;102.872;2022-09-02T02:14:43;7.78;;;6.95;;
18574;SDS011;9417;16.484;102.872;2022-09-02T02:16:51;7.30;;;6.18;;
18574;SDS011;9417;16.484;102.872;2022-09-02T02:18:59;6.85;;;6.07;;
18574;SDS011;9417;16.484;102.872;2022-09-02T02:21:07;8.88;;;7.18;;
18574;SDS011;9417;16.484;102.872;2022-09-02T02:23:14;8.10;;;6.20;;
18574;SDS011;9417;16.484;102.872;2022-09-02T02:25:24;7.72;;;6.85;;
18574;SDS011;9417;16.484;102.872;2022-09-02T02:27:31;7.72;;;6.93;;
18574;SDS011;9417;16.484;102.872;2022-09-02T02:29:40;9.43;;;6.70;;
18574;SDS011;9417;16.484;102.872;2022-09-02T02:31:48;7.45;;;6.68;;
18574;SDS011;9417;16.484;102.872;2022-09-02T02:33:56;6.85;;;6.15;;
18574;SDS011;9417;16.484;102.872;2022-09-02T02:36:04;7.45;;;6.25;;
18574;SDS011;9417;16.484;102.872;2022-09-02T02:38:12;6.88;;;6.18;;
18574;SDS011;9417;16.484;102.872;2022-09-02T02:40:20;7.00;;;6.05;;
18574;SDS011;9417;16.484;102.872;2022-09-02T02:42:30;7.68;;;6.25;;
18574;SDS011;9417;16.484;102.872;2022-09-02T02:44:37;8.30;;;6.50;;
18574;SDS011;9417;16.484;102.872;2022-09-02T02:46:44;8.00;;;6.43;;
18574;SDS011;9417;16.484;102.872;2022-09-02T02:48:52;7.63;;;6.70;;
18574;SDS011;9417;16.484;102.872;2022-09-02T02:51:00;7.65;;;6.82;;
18574;SDS011;9417;16.484;102.872;2022-09-02T02:53:08;9.00;;;6.20;;
18574;SDS011;9417;16.484;102.872;2022-09-02T02:55:16;7.65;;;6.93;;
18574;SDS011;9417;16.484;102.872;2022-09-02T02:57:25;7.65;;;6.85;;
18574;SDS011;9417;16.484;102.872;2022-09-02T02:59:32;8.07;;;6.10;;
18574;SDS011;9417;16.484;102.872;2022-09-02T03:01:41;7.90;;;6.38;;
18574;SDS011;9417;16.484;102.872;2022-09-02T03:03:49;6.70;;;6.00;;
18574;SDS011;9417;16.484;102.872;2022-09-02T03:05:57;7.38;;;6.20;;
18574;SDS011;9417;16.484;102.872;2022-09-02T03:08:05;8.70;;;6.05;;
18574;SDS011;9417;16.484;102.872;2022-09-02T03:10:13;8.68;;;7.10;;
18574;SDS011;9417;16.484;102.872;2022-09-02T03:12:20;8.77;;;7.13;;
18574;SDS011;9417;16.484;102.872;2022-09-02T03:14:30;8.23;;;6.70;;
18574;SDS011;9417;16.484;102.872;2022-09-02T03:16:37;7.43;;;6.65;;
18574;SDS011;9417;16.484;102.872;2022-09-02T03:18:45;8.77;;;6.63;;
18574;SDS011;9417;16.484;102.872;2022-09-02T03:20:53;7.78;;;6.88;;
18574;SDS011;9417;16.484;102.872;2022-09-02T03:23:00;6.60;;;5.95;;
18574;SDS011;9417;16.484;102.872;2022-09-02T03:25:09;6.55;;;5.85;;
18574;SDS011;9417;16.484;102.872;2022-09-02T03:27:18;8.93;;;6.45;;
18574;SDS011;9417;16.484;102.872;2022-09-02T03:29:25;6.72;;;6.05;;
18574;SDS011;9417;16.484;102.872;2022-09-02T03:31:35;7.68;;;5.97;;
18574;SDS011;9417;16.484;102.872;2022-09-02T03:33:42;7.00;;;6.18;;
18574;SDS011;9417;16.484;102.872;2022-09-02T03:35:52;7.18;;;6.07;;
18574;SDS011;9417;16.484;102.872;2022-09-02T03:38:00;6.25;;;5.65;;
18574;SDS011;9417;16.484;102.872;2022-09-02T03:40:09;6.45;;;5.72;;
18574;SDS011;9417;16.484;102.872;2022-09-02T03:42:18;7.18;;;5.43;;
18574;SDS011;9417;16.484;102.872;2022-09-02T03:44:25;7.13;;;5.45;;
18574;SDS011;9417;16.484;102.872;2022-09-02T03:46:35;6.25;;;5.65;;
18574;SDS011;9417;16.484;102.872;2022-09-02T03:48:42;6.65;;;6.05;;
18574;SDS011;9417;16.484;102.872;2022-09-02T03:50:49;6.57;;;5.97;;
18574;SDS011;9417;16.484;102.872;2022-09-02T03:52:57;6.88;;;6.10;;
18574;SDS011;9417;16.484;102.872;2022-09-02T03:55:05;7.40;;;5.93;;
18574;SDS011;9417;16.484;102.872;2022-09-02T03:57:12;8.35;;;6.85;;
18574;SDS011;9417;16.484;102.872;2022-09-02T03:59:20;7.60;;;6.82;;
18574;SDS011;9417;16.484;102.872;2022-09-02T04:01:28;7.25;;;6.53;;
18574;SDS011;9417;16.484;102.872;2022-09-02T04:03:40;8.23;;;6.78;;
18574;SDS011;9417;16.484;102.872;2022-09-02T04:05:48;7.68;;;6.63;;
18574;SDS011;9417;16.484;102.872;2022-09-02T04:07:58;6.45;;;5.15;;
18574;SDS011;9417;16.484;102.872;2022-09-02T04:10:06;6.18;;;5.57;;
18574;SDS011;9417;16.484;102.872;2022-09-02T04:12:14;8.07;;;6.00;;
18574;SDS011;9417;16.484;102.872;2022-09-02T04:14:21;6.78;;;5.70;;
18574;SDS011;9417;16.484;102.872;2022-09-02T04:16:29;6.57;;;5.93;;
18574;SDS011;9417;16.484;102.872;2022-09-02T04:18:42;6.18;;;5.57;;
18574;SDS011;9417;16.484;102.872;2022-09-02T04:20:49;6.57;;;5.65;;
18574;SDS011;9417;16.484;102.872;2022-09-02T04:22:57;7.35;;;5.43;;
18574;SDS011;9417;16.484;102.872;2022-09-02T04:25:06;5.97;;;5.15;;
18574;SDS011;9417;16.484;102.872;2022-09-02T04:27:14;6.82;;;5.47;;
18574;SDS011;9417;16.484;102.872;2022-09-02T04:29:22;7.07;;;4.75;;
18574;SDS011;9417;16.484;102.872;2022-09-02T04:31:30;5.75;;;5.15;;
18574;SDS011;9417;16.484;102.872;2022-09-02T04:33:39;6.80;;;5.68;;
18574;SDS011;9417;16.484;102.872;2022-09-02T04:35:50;5.75;;;5.15;;
18574;SDS011;9417;16.484;102.872;2022-09-02T04:37:57;6.55;;;5.75;;
18574;SDS011;9417;16.484;102.872;2022-09-02T04:40:06;7.15;;;5.88;;
18574;SDS011;9417;16.484;102.872;2022-09-02T04:42:15;6.10;;;5.57;;
18574;SDS011;9417;16.484;102.872;2022-09-02T04:44:23;6.55;;;5.95;;
18574;SDS011;9417;16.484;102.872;2022-09-02T04:46:30;6.63;;;5.65;;
18574;SDS011;9417;16.484;102.872;2022-09-02T04:48:42;7.03;;;5.85;;
18574;SDS011;9417;16.484;102.872;2022-09-02T04:50:51;7.38;;;5.90;;
18574;SDS011;9417;16.484;102.872;2022-09-02T04:52:59;6.65;;;5.65;;
18574;SDS011;9417;16.484;102.872;2022-09-02T04:55:07;6.20;;;5.57;;
18574;SDS011;9417;16.484;102.872;2022-09-02T04:57:16;5.63;;;5.00;;
18574;SDS011;9417;16.484;102.872;2022-09-02T04:59:24;7.05;;;5.50;;
18574;SDS011;9417;16.484;102.872;2022-09-02T05:01:40;6.25;;;5.22;;
18574;SDS011;9417;16.484;102.872;2022-09-02T05:03:53;5.90;;;5.30;;
18574;SDS011;9417;16.484;102.872;2022-09-02T05:06:10;7.32;;;5.57;;
18574;SDS011;9417;16.484;102.872;2022-09-02T05:08:20;6.53;;;5.32;;
18574;SDS011;9417;16.484;102.872;2022-09-02T05:10:27;8.40;;;5.18;;
18574;SDS011;9417;16.484;102.872;2022-09-02T05:12:35;6.90;;;5.40;;
18574;SDS011;9417;16.484;102.872;2022-09-02T05:14:46;6.50;;;5.90;;
18574;SDS011;9417;16.484;102.872;2022-09-02T05:16:54;6.30;;;5.57;;
18574;SDS011;9417;16.484;102.872;2022-09-02T05:19:09;6.30;;;5.70;;
18574;SDS011;9417;16.484;102.872;2022-09-02T05:21:22;5.95;;;5.30;;
18574;SDS011;9417;16.484;102.872;2022-09-02T05:23:31;7.53;;;5.80;;
18574;SDS011;9417;16.484;102.872;2022-09-02T05:25:38;5.80;;;5.20;;
18574;SDS011;9417;16.484;102.872;2022-09-02T05:27:46;5.60;;;5.10;;
18574;SDS011;9417;16.484;102.872;2022-09-02T05:29:53;6.45;;;5.35;;
18574;SDS011;9417;16.484;102.872;2022-09-02T05:32:04;5.45;;;4.95;;
18574;SDS011;9417;16.484;102.872;2022-09-02T05:34:13;6.57;;;4.95;;
18574;SDS011;9417;16.484;102.872;2022-09-02T05:36:25;6.90;;;4.82;;
18574;SDS011;9417;16.484;102.872;2022-09-02T05:38:35;5.70;;;4.97;;
18574;SDS011;9417;16.484;102.872;2022-09-02T05:40:42;6.40;;;5.80;;
18574;SDS011;9417;16.484;102.872;2022-09-02T05:42:50;6.03;;;5.30;;
18574;SDS011;9417;16.484;102.872;2022-09-02T05:44:57;5.95;;;5.25;;
18574;SDS011;9417;16.484;102.872;2022-09-02T05:47:04;5.97;;;5.38;;
18574;SDS011;9417;16.484;102.872;2022-09-02T05:49:12;5.35;;;4.85;;
18574;SDS011;9417;16.484;102.872;2022-09-02T05:51:31;5.85;;;5.25;;
18574;SDS011;9417;16.484;102.872;2022-09-02T05:53:42;5.85;;;5.25;;
18574;SDS011;9417;16.484;102.872;2022-09-02T05:55:50;6.13;;;5.35;;
18574;SDS011;9417;16.484;102.872;2022-09-02T05:57:58;5.82;;;5.32;;
18574;SDS011;9417;16.484;102.872;2022-09-02T06:00:07;6.13;;;4.75;;
18574;SDS011;9417;16.484;102.872;2022-09-02T06:02:32;7.10;;;4.93;;
18574;SDS011;9417;16.484;102.872;2022-09-02T06:04:39;5.95;;;4.90;;
18574;SDS011;9417;16.484;102.872;2022-09-02T06:06:51;5.55;;;4.85;;
18574;SDS011;9417;16.484;102.872;2022-09-02T06:08:59;5.93;;;5.32;;
18574;SDS011;9417;16.484;102.872;2022-09-02T06:11:09;5.00;;;4.43;;
18574;SDS011;9417;16.484;102.872;2022-09-02T06:13:17;6.95;;;5.25;;
18574;SDS011;9417;16.484;102.872;2022-09-02T06:15:28;5.90;;;5.30;;
18574;SDS011;9417;16.484;102.872;2022-09-02T06:17:36;5.93;;;5.43;;
18574;SDS011;9417;16.484;102.872;2022-09-02T06:19:45;5.88;;;5.28;;
18574;SDS011;9417;16.484;102.872;2022-09-02T06:22:00;7.90;;;5.65;;
18574;SDS011;9417;16.484;102.872;2022-09-02T06:24:11;5.63;;;5.07;;
18574;SDS011;9417;16.484;102.872;2022-09-02T06:26:18;5.63;;;5.00;;
18574;SDS011;9417;16.484;102.872;2022-09-02T06:28:26;6.40;;;5.47;;
18574;SDS011;9417;16.484;102.872;2022-09-02T06:30:34;5.90;;;5.10;;
18574;SDS011;9417;16.484;102.872;2022-09-02T06:32:45;5.80;;;5.20;;
18574;SDS011;9417;16.484;102.872;2022-09-02T06:34:54;6.05;;;5.18;;
18574;SDS011;9417;16.484;102.872;2022-09-02T06:37:06;5.53;;;5.03;;
18574;SDS011;9417;16.484;102.872;2022-09-02T06:39:15;7.60;;;6.80;;
18574;SDS011;9417;16.484;102.872;2022-09-02T06:41:26;7.03;;;6.07;;
18574;SDS011;9417;16.484;102.872;2022-09-02T06:43:39;5.88;;;5.15;;
18574;SDS011;9417;16.484;102.872;2022-09-02T06:45:54;5.45;;;4.95;;
18574;SDS011;9417;16.484;102.872;2022-09-02T06:48:03;5.97;;;5.00;;
18574;SDS011;9417;16.484;102.872;2022-09-02T06:50:13;7.10;;;5.25;;
18574;SDS011;9417;16.484;102.872;2022-09-02T06:52:22;6.18;;;5.57;;
18574;SDS011;9417;16.484;102.872;2022-09-02T06:54:30;5.60;;;4.95;;
18574;SDS011;9417;16.484;102.872;2022-09-02T06:56:48;6.35;;;5.65;;
18574;SDS011;9417;16.484;102.872;2022-09-02T06:58:59;7.13;;;5.70;;
18574;SDS011;9417;16.484;102.872;2022-09-02T07:01:17;5.70;;;5.15;;
18574;SDS011;9417;16.484;102.872;2022-09-02T07:03:26;5.40;;;4.90;;
18574;SDS011;9417;16.484;102.872;2022-09-02T07:05:57;5.95;;;5.35;;
18574;SDS011;9417;16.484;102.872;2022-09-02T07:08:10;6.28;;;5.18;;
18574;SDS011;9417;16.484;102.872;2022-09-02T07:10:17;7.53;;;5.28;;
18574;SDS011;9417;16.484;102.872;2022-09-02T07:12:28;6.97;;;6.38;;
18574;SDS011;9417;16.484;102.872;2022-09-02T07:14:40;6.68;;;5.97;;
18574;SDS011;9417;16.484;102.872;2022-09-02T07:16:55;6.78;;;6.05;;
18574;SDS011;9417;16.484;102.872;2022-09-02T07:19:05;6.67;;;6.00;;
18574;SDS011;9417;16.484;102.872;2022-09-02T07:21:20;6.53;;;5.75;;
18574;SDS011;9417;16.484;102.872;2022-09-02T07:23:29;7.03;;;5.90;;
18574;SDS011;9417;16.484;102.872;2022-09-02T07:25:43;6.63;;;5.45;;
18574;SDS011;9417;16.484;102.872;2022-09-02T07:27:51;6.05;;;5.40;;
18574;SDS011;9417;16.484;102.872;2022-09-02T07:29:58;6.43;;;5.78;;
18574;SDS011;9417;16.484;102.872;2022-09-02T07:32:09;6.83;;;5.50;;
18574;SDS011;9417;16.484;102.872;2022-09-02T07:34:16;6.10;;;5.18;;
18574;SDS011;9417;16.484;102.872;2022-09-02T07:36:24;6.95;;;5.95;;
18574;SDS011;9417;16.484;102.872;2022-09-02T07:38:35;6.45;;;5.70;;
18574;SDS011;9417;16.484;102.872;2022-09-02T07:40:42;5.95;;;5.35;;
18574;SDS011;9417;16.484;102.872;2022-09-02T07:42:59;6.38;;;5.28;;
18574;SDS011;9417;16.484;102.872;2022-09-02T07:45:09;6.18;;;5.35;;
18574;SDS011;9417;16.484;102.872;2022-09-02T07:47:25;6.22;;;5.63;;
18574;SDS011;9417;16.484;102.872;2022-09-02T07:49:33;6.25;;;5.65;;
18574;SDS011;9417;16.484;102.872;2022-09-02T07:52:01;6.50;;;5.80;;
18574;SDS011;9417;16.484;102.872;2022-09-02T07:54:12;5.45;;;4.80;;
18574;SDS011;9417;16.484;102.872;2022-09-02T07:56:21;6.05;;;5.43;;
18574;SDS011;9417;16.484;102.872;2022-09-02T07:58:29;5.47;;;4.97;;
18574;SDS011;9417;16.484;102.872;2022-09-02T08:00:37;6.63;;;5.95;;
18574;SDS011;9417;16.484;102.872;2022-09-02T08:02:45;6.55;;;5.43;;
18574;SDS011;9417;16.484;102.872;2022-09-02T08:05:00;7.00;;;5.47;;
18574;SDS011;9417;16.484;102.872;2022-09-02T08:07:08;6.25;;;5.50;;
18574;SDS011;9417;16.484;102.872;2022-09-02T08:09:18;6.18;;;5.53;;
18574;SDS011;9417;16.484;102.872;2022-09-02T08:11:26;6.32;;;5.75;;
18574;SDS011;9417;16.484;102.872;2022-09-02T08:13:36;6.35;;;5.70;;
18574;SDS011;9417;16.484;102.872;2022-09-02T08:15:44;6.25;;;5.43;;
18574;SDS011;9417;16.484;102.872;2022-09-02T08:17:52;5.80;;;5.20;;
18574;SDS011;9417;16.484;102.872;2022-09-02T08:20:00;6.32;;;5.50;;
18574;SDS011;9417;16.484;102.872;2022-09-02T08:22:13;7.07;;;5.57;;
18574;SDS011;9417;16.484;102.872;2022-09-02T08:24:22;5.78;;;5.28;;
18574;SDS011;9417;16.484;102.872;2022-09-02T08:26:29;6.30;;;5.70;;
18574;SDS011;9417;16.484;102.872;2022-09-02T08:28:39;6.05;;;4.80;;
18574;SDS011;9417;16.484;102.872;2022-09-02T08:30:46;5.78;;;5.18;;
18574;SDS011;9417;16.484;102.872;2022-09-02T08:32:54;6.10;;;5.45;;
18574;SDS011;9417;16.484;102.872;2022-09-02T08:35:01;7.03;;;5.45;;
18574;SDS011;9417;16.484;102.872;2022-09-02T08:37:08;5.45;;;4.95;;
18574;SDS011;9417;16.484;102.872;2022-09-02T08:39:16;5.55;;;5.05;;
18574;SDS011;9417;16.484;102.872;2022-09-02T08:41:31;5.78;;;5.18;;
18574;SDS011;9417;16.484;102.872;2022-09-02T08:43:46;5.75;;;4.93;;
18574;SDS011;9417;16.484;102.872;2022-09-02T08:45:57;6.72;;;5.65;;
18574;SDS011;9417;16.484;102.872;2022-09-02T08:48:10;6.18;;;5.57;;
18574;SDS011;9417;16.484;102.872;2022-09-02T08:50:23;6.03;;;5.25;;
18574;SDS011;9417;16.484;102.872;2022-09-02T08:52:32;8.50;;;5.35;;
18574;SDS011;9417;16.484;102.872;2022-09-02T08:54:46;6.22;;;5.18;;
18574;SDS011;9417;16.484;102.872;2022-09-02T08:56:59;5.50;;;4.95;;
18574;SDS011;9417;16.484;102.872;2022-09-02T08:59:07;6.15;;;5.15;;
18574;SDS011;9417;16.484;102.872;2022-09-02T09:01:18;5.28;;;4.78;;
18574;SDS011;9417;16.484;102.872;2022-09-02T09:03:35;6.60;;;5.18;;
18574;SDS011;9417;16.484;102.872;2022-09-02T09:05:48;6.38;;;5.72;;
18574;SDS011;9417;16.484;102.872;2022-09-02T09:08:05;6.82;;;5.32;;
18574;SDS011;9417;16.484;102.872;2022-09-02T09:10:24;6.88;;;5.25;;
18574;SDS011;9417;16.484;102.872;2022-09-02T09:12:41;6.85;;;5.78;;
18574;SDS011;9417;16.484;102.872;2022-09-02T09:15:19;6.30;;;5.70;;
18574;SDS011;9417;16.484;102.872;2022-09-02T09:17:36;6.53;;;5.70;;
18574;SDS011;9417;16.484;102.872;2022-09-02T09:19:49;6.97;;;6.03;;
18574;SDS011;9417;16.484;102.872;2022-09-02T09:21:57;7.35;;;5.20;;
18574;SDS011;9417;16.484;102.872;2022-09-02T09:24:07;6.40;;;5.80;;
18574;SDS011;9417;16.484;102.872;2022-09-02T09:26:25;6.50;;;5.88;;
18574;SDS011;9417;16.484;102.872;2022-09-02T09:28:40;7.10;;;5.60;;
18574;SDS011;9417;16.484;102.872;2022-09-02T09:30:53;6.88;;;5.80;;
18574;SDS011;9417;16.484;102.872;2022-09-02T09:33:00;7.38;;;5.45;;
18574;SDS011;9417;16.484;102.872;2022-09-02T09:35:08;6.25;;;5.57;;
18574;SDS011;9417;16.484;102.872;2022-09-02T09:37:21;5.85;;;5.10;;
18574;SDS011;9417;16.484;102.872;2022-09-02T09:39:37;5.75;;;5.18;;
18574;SDS011;9417;16.484;102.872;2022-09-02T09:41:45;6.35;;;5.07;;
18574;SDS011;9417;16.484;102.872;2022-09-02T09:43:55;7.40;;;5.93;;
18574;SDS011;9417;16.484;102.872;2022-09-02T09:46:18;9.13;;;5.50;;
18574;SDS011;9417;16.484;102.872;2022-09-02T09:48:30;5.93;;;5.35;;
18574;SDS011;9417;16.484;102.872;2022-09-02T09:50:39;6.15;;;5.55;;
18574;SDS011;9417;16.484;102.872;2022-09-02T09:52:46;6.10;;;5.22;;
18574;SDS011;9417;16.484;102.872;2022-09-02T09:55:11;6.28;;;5.45;;
18574;SDS011;9417;16.484;102.872;2022-09-02T09:57:26;6.00;;;5.40;;
18574;SDS011;9417;16.484;102.872;2022-09-02T09:59:41;5.95;;;5.35;;
18574;SDS011;9417;16.484;102.872;2022-09-02T10:01:52;6.45;;;5.55;;
18574;SDS011;9417;16.484;102.872;2022-09-02T10:04:01;7.78;;;5.95;;
18574;SDS011;9417;16.484;102.872;2022-09-02T10:06:37;8.27;;;6.65;;
18574;SDS011;9417;16.484;102.872;2022-09-02T10:08:55;7.15;;;6.07;;
18574;SDS011;9417;16.484;102.872;2022-09-02T10:11:05;10.55;;;7.25;;
18574;SDS011;9417;16.484;102.872;2022-09-02T10:13:25;8.65;;;6.60;;
18574;SDS011;9417;16.484;102.872;2022-09-02T10:15:36;7.97;;;6.53;;
18574;SDS011;9417;16.484;102.872;2022-09-02T10:17:51;7.13;;;6.32;;
18574;SDS011;9417;16.484;102.872;2022-09-02T10:20:09;7.75;;;6.85;;
18574;SDS011;9417;16.484;102.872;2022-09-02T10:25:04;7.00;;;6.03;;
18574;SDS011;9417;16.484;102.872;2022-09-02T10:27:27;8.60;;;7.22;;
18574;SDS011;9417;16.484;102.872;2022-09-02T10:29:50;8.75;;;6.72;;
18574;SDS011;9417;16.484;102.872;2022-09-02T10:32:13;8.75;;;6.30;;
18574;SDS011;9417;16.484;102.872;2022-09-02T10:34:30;8.45;;;6.28;;
18574;SDS011;9417;16.484;102.872;2022-09-02T10:36:53;7.07;;;6.20;;
18574;SDS011;9417;16.484;102.872;2022-09-02T10:39:15;7.63;;;6.07;;
18574;SDS011;9417;16.484;102.872;2022-09-02T10:41:34;8.77;;;6.30;;
18574;SDS011;9417;16.484;102.872;2022-09-02T10:46:40;6.88;;;5.50;;
18574;SDS011;9417;16.484;102.872;2022-09-02T10:48:58;7.13;;;6.32;;
18574;SDS011;9417;16.484;102.872;2022-09-02T10:51:14;6.88;;;5.93;;
18574;SDS011;9417;16.484;102.872;2022-09-02T10:53:31;6.93;;;6.10;;
18574;SDS011;9417;16.484;102.872;2022-09-02T10:55:50;13.00;;;8.73;;
18574;SDS011;9417;16.484;102.872;2022-09-02T10:58:02;12.63;;;8.80;;
18574;SDS011;9417;16.484;102.872;2022-09-02T11:00:14;11.55;;;8.55;;
18574;SDS011;9417;16.484;102.872;2022-09-02T11:02:23;9.57;;;8.38;;
18574;SDS011;9417;16.484;102.872;2022-09-02T11:04:38;10.35;;;8.13;;
18574;SDS011;9417;16.484;102.872;2022-09-02T11:06:50;8.40;;;7.50;;
18574;SDS011;9417;16.484;102.872;2022-09-02T11:09:06;10.40;;;8.02;;
18574;SDS011;9417;16.484;102.872;2022-09-02T11:11:20;8.80;;;7.45;;
18574;SDS011;9417;16.484;102.872;2022-09-02T11:13:34;8.18;;;7.38;;
18574;SDS011;9417;16.484;102.872;2022-09-02T11:15:46;7.95;;;7.15;;
18574;SDS011;9417;16.484;102.872;2022-09-02T11:17:59;8.60;;;7.70;;
18574;SDS011;9417;16.484;102.872;2022-09-02T11:20:13;10.57;;;7.65;;
18574;SDS011;9417;16.484;102.872;2022-09-02T11:22:31;7.32;;;6.55;;
18574;SDS011;9417;16.484;102.872;2022-09-02T11:24:46;7.80;;;6.80;;
18574;SDS011;9417;16.484;102.872;2022-09-02T11:26:59;7.43;;;6.72;;
18574;SDS011;9417;16.484;102.872;2022-09-02T11:29:31;7.43;;;6.65;;
18574;SDS011;9417;16.484;102.872;2022-09-02T11:31:45;8.10;;;7.30;;
18574;SDS011;9417;16.484;102.872;2022-09-02T11:34:02;9.60;;;7.40;;
18574;SDS011;9417;16.484;102.872;2022-09-02T11:36:19;9.60;;;7.10;;
18574;SDS011;9417;16.484;102.872;2022-09-02T11:38:30;9.07;;;7.38;;
18574;SDS011;9417;16.484;102.872;2022-09-02T11:40:42;7.63;;;6.82;;
18574;SDS011;9417;16.484;102.872;2022-09-02T11:43:26;8.52;;;7.10;;
18574;SDS011;9417;16.484;102.872;2022-09-02T11:45:47;9.10;;;7.55;;
18574;SDS011;9417;16.484;102.872;2022-09-02T11:50:58;8.05;;;6.60;;
18574;SDS011;9417;16.484;102.872;2022-09-02T11:53:29;7.03;;;5.60;;
18574;SDS011;9417;16.484;102.872;2022-09-02T11:55:41;7.35;;;4.45;;
18574;SDS011;9417;16.484;102.872;2022-09-02T11:57:53;5.60;;;4.35;;
18574;SDS011;9417;16.484;102.872;2022-09-02T12:00:04;5.53;;;3.33;;
18574;SDS011;9417;16.484;102.872;2022-09-02T12:02:14;3.75;;;3.38;;
18574;SDS011;9417;16.484;102.872;2022-09-02T12:04:42;6.15;;;3.90;;
18574;SDS011;9417;16.484;102.872;2022-09-02T12:07:21;4.15;;;3.35;;
18574;SDS011;9417;16.484;102.872;2022-09-02T12:09:43;4.60;;;3.00;;
18574;SDS011;9417;16.484;102.872;2022-09-02T12:11:51;3.53;;;2.90;;
18574;SDS011;9417;16.484;102.872;2022-09-02T12:13:59;4.15;;;2.72;;
18574;SDS011;9417;16.484;102.872;2022-09-02T12:18:44;3.22;;;2.38;;
18574;SDS011;9417;16.484;102.872;2022-09-02T12:21:13;5.15;;;3.55;;
18574;SDS011;9417;16.484;102.872;2022-09-02T12:26:14;6.55;;;4.75;;
18574;SDS011;9417;16.484;102.872;2022-09-02T12:28:22;4.45;;;3.30;;
18574;SDS011;9417;16.484;102.872;2022-09-02T12:33:11;2.72;;;2.15;;
18574;SDS011;9417;16.484;102.872;2022-09-02T12:35:28;3.05;;;2.20;;
18574;SDS011;9417;16.484;102.872;2022-09-02T12:37:55;3.75;;;2.40;;
18574;SDS011;9417;16.484;102.872;2022-09-02T12:40:23;3.75;;;2.13;;
18574;SDS011;9417;16.484;102.872;2022-09-02T12:42:39;4.25;;;2.50;;
18574;SDS011;9417;16.484;102.872;2022-09-02T12:44:51;3.75;;;2.92;;
18574;SDS011;9417;16.484;102.872;2022-09-02T12:47:07;3.70;;;2.92;;
18574;SDS011;9417;16.484;102.872;2022-09-02T12:49:26;5.00;;;3.20;;
18574;SDS011;9417;16.484;102.872;2022-09-02T12:51:53;5.00;;;3.35;;
18574;SDS011;9417;16.484;102.872;2022-09-02T12:54:02;5.07;;;3.55;;
18574;SDS011;9417;16.484;102.872;2022-09-02T12:56:18;5.05;;;3.20;;
18574;SDS011;9417;16.484;102.872;2022-09-02T12:58:30;7.38;;;3.80;;
18574;SDS011;9417;16.484;102.872;2022-09-02T13:00:45;4.18;;;3.38;;
18574;SDS011;9417;16.484;102.872;2022-09-02T13:03:19;5.78;;;3.97;;
18574;SDS011;9417;16.484;102.872;2022-09-02T13:05:53;5.40;;;3.78;;
18574;SDS011;9417;16.484;102.872;2022-09-02T13:11:18;6.90;;;3.90;;
18574;SDS011;9417;16.484;102.872;2022-09-02T13:13:57;7.38;;;3.60;;
18574;SDS011;9417;16.484;102.872;2022-09-02T13:16:26;3.72;;;3.17;;
18574;SDS011;9417;16.484;102.872;2022-09-02T13:18:55;4.95;;;3.08;;
18574;SDS011;9417;16.484;102.872;2022-09-02T13:26:53;4.82;;;3.08;;